カラチ の空港の天気 - METARとTAF

ジンナー国際空港(カラチ) ( OPKC / KHI ) - パキスタン Karachi
飛行場実況気象(Metar)
観測時間08/11 11:25 PKT (08/11 06:25 UTC)
風向・風速南南西 5m/s
視程5000m
天気現象煙霧
全天の8割程度の雲 雲底高度 610m
気温33℃
湿度67%
気圧1000hPa
METAROPKC 110625Z 20010KT 5000 HZ BKN020 33/26 Q1000 NOSIG
過去の天気等 Google飛行場航空写真 Wunderground天気予報

過去48時間のMETAR

飛行場予報(TAF)
発表時間: 8/11 08:30 PKT (8/11 03:30 UTC)
予報対象時間: 11日11時 PKT ~ 12日17時 PKT
風向・風速南西 5m/s 瞬間風速 10m/s
視程6000m
全天の4割程度の雲 雲底高度 610m
全天の8割程度の雲 雲底高度 910m
11日23時 PKT から
風向・風速南西 5m/s 瞬間風速 10m/s
視程5000m
天気現象弱い雨
全天の4割程度の雲 雲底高度 610m
全天の8割程度の雲 雲底高度 910m
12日13時 PKT ~ 12日17時 PKT に一時的に
風向・風速西 8m/s 瞬間風速 13m/s
視程3000m
天気現象高い風塵
全天の4割程度の雲 雲底高度 610m
全天の8割程度の雲 雲底高度 910m
TAF OPKC 110330Z 1106/1212 23010G20KT 6000 SCT020 BKN030
FM111800 23010G20KT 5000 -RA SCT020 BKN030
TEMPO 1208/1212 26015G25KT 3000 BLDU SCT020 BKN030